• Join FlightAware (Why Join?)
  • Login
  • US Flag 
11:08AM EDT


 

Airport Tracker/Info


-or-


 

Live Flight TrackerFlight Track Log ✈ QXE2326 ✈ 03-May-2013 ✈ KSEA - KGTF

Flight Track Log - Related Links

Times and Time Zones

All times are in EDT time to prevent confusion due to time zone crossing. See the QXE2326 flight status page for this flight to view local times or setup timezone preferences in your user account.

Time Position Orientation Groundspeed Altitude Reporting Facility
EDT Latitude Longitude Course Direction KTS MPH feet Rate Location/Type
04:04PM 47.5436 -113.5722 86° East 329 379 25,000  Level Seattle Center
04:05PM 47.5347 -113.4375 96° East 331 381 25,000  Level Salt Lake Center
04:06PM 47.5286 -113.3039 94° East 329 379 25,000  Level Salt Lake Center
04:07PM 47.5228 -113.1689 94° East 329 379 25,000  Level Salt Lake Center
04:08PM 47.5142 -113.0086 94° East 328 377 25,000 -60 Level Salt Lake Center
04:09PM 47.5478 -113.1329 86° East  Level Estimated
04:09PM 47.5061 -112.8733 95° East 328 377 24,900  Level Salt Lake Center
04:10PM 47.4972 -112.7358 95° East 335 386 23,100 -1,920 Descending Salt Lake Center
04:11PM 47.4894 -112.5925 95° East 348 400 21,000 -2,100 Descending Salt Lake Center
04:12PM 47.4819 -112.4506 94° East 348 400 18,900 -2,100 Descending Salt Lake Center
04:13PM 47.4722 -112.3072 96° East 351 404 16,800 -2,100 Descending Salt Lake Center
04:14PM 47.4644 -112.1658 95° East 349 402 14,600 -1,440 Descending Salt Lake Center
04:15PM 47.4564 -112.0317 95° East 337 388 13,900 -1,080 Descending Salt Lake Center
04:16PM 47.4478 -111.9033 96° East 285 328 12,400 -1,860 Descending Salt Lake Center
04:17PM 47.4414 -111.7928 95° East 273 314 10,100 -2,160 Descending Salt Lake Center
04:18PM 47.4328 -111.6778 96° East 276 318 8,000 -1,800 Descending Salt Lake Center
04:19PM 47.4253 -111.5675 96° East 276 318 6,500 -1,380 Descending Salt Lake Center
04:20PM 47.4197 -111.4711 95° East 259 298 5,200 -1,080 Descending Salt Lake Center
04:21PM 47.4472 -111.4172 53° Northeast 196 226 4,300 -840 Descending Salt Lake Center
04:22PM 47.4778 -111.3719 45° Northeast 153 176 3,600 -720 Descending Salt Lake Center
04:24PM 47.4667 -111.3667 90° East  Level FlightAware Approximate
04:31PM 47.4827 -111.3706 90° East  Level Estimated